Time;durP1;ratioP1;P1;durP2;ratioP2;P2;SDS_P1;SDS_P2;PMS_P1;PMS_P2;Temp;Humidity;BMP_temperature;BMP_pressure;BME280_temperature;BME280_humidity;BME280_pressure;Samples;Min_cycle;Max_cycle;Signal;HPM_P1;HPM_P2
2022/08/23 00:02:01;;;;;;;3.75;1.92;;;17.50;99.90;;;;;;5029506;28;20033;-84
2022/08/23 00:04:33;;;;;;;3.47;1.80;;;17.50;99.90;;;;;;5046902;28;20033;-84
2022/08/23 00:07:00;;;;;;;4.30;2.35;;;17.50;99.90;;;;;;5045450;28;20032;-85
2022/08/23 00:09:26;;;;;;;4.05;2.22;;;17.50;99.90;;;;;;5027926;28;20039;-85
2022/08/23 00:12:14;;;;;;;4.28;2.33;;;17.50;99.90;;;;;;5046557;28;20495;-85
2022/08/23 00:14:47;;;;;;;4.30;2.58;;;17.40;99.90;;;;;;5043500;28;20045;-84
2022/08/23 00:17:13;;;;;;;3.10;2.40;;;17.30;99.90;;;;;;5044238;28;20087;-85
2022/08/23 00:19:39;;;;;;;3.20;2.17;;;17.20;99.90;;;;;;5045038;28;20048;-84
2022/08/23 00:22:05;;;;;;;4.82;2.58;;;17.20;99.90;;;;;;5046307;28;20044;-85
2022/08/23 00:24:31;;;;;;;4.47;2.72;;;17.20;99.90;;;;;;5021992;28;20074;-84
2022/08/23 00:27:00;;;;;;;5.88;2.80;;;17.20;99.90;;;;;;5046987;28;20040;-84
2022/08/23 00:29:56;;;;;;;4.40;3.00;;;17.20;99.90;;;;;;5046646;28;20033;-84
2022/08/23 00:32:27;;;;;;;6.55;3.13;;;17.30;99.90;;;;;;5024411;28;20056;-84
2022/08/23 00:34:53;;;;;;;11.70;3.15;;;17.20;99.90;;;;;;5044526;28;20086;-84
2022/08/23 00:37:20;;;;;;;5.03;3.22;;;17.10;99.90;;;;;;5026834;28;20025;-84
2022/08/23 00:39:45;;;;;;;5.78;3.30;;;17.10;99.90;;;;;;5057532;28;20036;-84
2022/08/23 00:47:44;;;;;;;6.32;3.65;;;16.90;99.90;;;;;;5058060;28;20045;-86
2022/08/23 00:50:31;;;;;;;4.93;3.60;;;16.90;99.90;;;;;;5043973;28;20120;-84
2022/08/23 00:52:56;;;;;;;6.32;3.10;;;16.90;99.90;;;;;;5027707;28;20045;-84
2022/08/23 00:55:23;;;;;;;4.32;3.15;;;16.90;99.90;;;;;;5046059;28;20043;-84
2022/08/23 00:57:50;;;;;;;4.40;3.08;;;16.90;99.90;;;;;;5044833;28;20048;-84
2022/08/23 01:00:17;;;;;;;3.03;2.33;;;16.90;99.90;;;;;;5021184;28;20033;-85
2022/08/23 01:02:45;;;;;;;3.00;1.70;;;16.90;99.90;;;;;;5043948;28;20525;-84
2022/08/23 01:05:11;;;;;;;3.95;2.10;;;16.90;99.90;;;;;;5044794;28;20116;-84
2022/08/23 01:07:53;;;;;;;2.70;1.75;;;16.90;99.90;;;;;;5045460;28;20051;-85
2022/08/23 01:10:28;;;;;;;5.00;2.10;;;16.90;99.90;;;;;;5045084;28;20048;-83
2022/08/23 01:13:10;;;;;;;4.55;2.45;;;16.80;99.90;;;;;;5043475;28;20040;-83
2022/08/23 01:15:42;;;;;;;3.25;2.22;;;16.80;99.90;;;;;;5046040;28;20045;-84
2022/08/23 01:18:09;;;;;;;2.55;2.10;;;16.80;99.90;;;;;;5028576;28;20045;-85
2022/08/23 01:20:49;;;;;;;3.08;2.28;;;16.80;99.90;;;;;;5044154;28;20439;-84
2022/08/23 01:23:40;;;;;;;4.80;2.72;;;16.80;99.90;;;;;;5045591;28;20033;-83
2022/08/23 01:26:07;;;;;;;6.25;2.40;;;16.70;99.90;;;;;;5041321;28;20033;-84
2022/08/23 01:28:33;;;;;;;3.42;2.20;;;16.60;99.90;;;;;;5043978;28;20045;-84
2022/08/23 01:31:00;;;;;;;2.15;1.80;;;16.60;99.90;;;;;;5041889;28;20072;-84
2022/08/23 01:33:26;;;;;;;2.75;1.70;;;16.60;99.90;;;;;;5027178;28;20091;-84
2022/08/23 01:35:55;;;;;;;2.53;1.63;;;16.60;99.90;;;;;;5045351;28;20048;-84
2022/08/23 01:38:25;;;;;;;3.20;1.80;;;16.60;99.90;;;;;;5044901;28;20033;-84
2022/08/23 01:40:51;;;;;;;4.43;2.53;;;16.50;99.90;;;;;;5026393;28;20423;-85
2022/08/23 01:43:20;;;;;;;2.75;2.30;;;16.50;99.90;;;;;;5045122;28;20056;-85
2022/08/23 01:45:47;;;;;;;2.00;1.60;;;16.50;99.90;;;;;;5045425;28;20052;-84
2022/08/23 01:48:13;;;;;;;3.30;2.10;;;16.50;99.90;;;;;;5041237;28;20030;-84
2022/08/23 01:50:39;;;;;;;3.65;2.08;;;16.50;99.90;;;;;;5043994;28;20052;-83
2022/08/23 01:53:05;;;;;;;2.67;2.10;;;16.40;99.90;;;;;;5045219;28;20410;-84
2022/08/23 01:55:32;;;;;;;3.00;2.30;;;16.40;99.90;;;;;;5044912;28;20131;-85
2022/08/23 01:58:01;;;;;;;2.92;2.10;;;16.30;99.90;;;;;;5045762;28;20514;-85
2022/08/23 02:00:40;;;;;;;4.55;3.45;;;16.30;99.90;;;;;;5045854;28;20103;-83
2022/08/23 02:03:07;;;;;;;6.55;3.17;;;16.30;99.90;;;;;;5027464;28;20071;-83
2022/08/23 02:05:36;;;;;;;4.65;3.50;;;16.40;99.90;;;;;;5046988;28;20056;-83
2022/08/23 02:08:59;;;;;;;6.47;3.25;;;16.30;99.90;;;;;;5046924;28;20036;-84
2022/08/23 02:10:49;;;;;;;5.50;3.65;;;16.20;99.90;;;;;;5049387;28;20147;-83
2022/08/23 02:13:15;;;;;;;3.88;3.10;;;16.20;99.90;;;;;;5047538;28;20635;-83
2022/08/23 02:15:43;;;;;;;6.10;3.40;;;16.20;99.90;;;;;;5050001;28;20064;-84
2022/08/23 02:18:10;;;;;;;6.13;3.35;;;16.20;99.90;;;;;;5064288;28;20082;-83
2022/08/23 02:20:36;;;;;;;3.58;2.67;;;16.20;99.90;;;;;;5032864;28;20052;-83
2022/08/23 02:23:02;;;;;;;3.75;2.80;;;16.20;99.90;;;;;;5030000;28;20041;-84
2022/08/23 02:25:27;;;;;;;3.60;2.67;;;16.10;99.90;;;;;;5048673;28;20044;-84
2022/08/23 02:27:53;;;;;;;5.22;2.80;;;16.00;99.90;;;;;;5047632;28;20041;-86
2022/08/23 02:30:19;;;;;;;6.20;3.17;;;16.00;99.90;;;;;;5046787;28;20044;-84
2022/08/23 02:32:44;;;;;;;6.95;3.80;;;16.00;99.90;;;;;;5046610;28;20119;-84
2022/08/23 02:35:10;;;;;;;2.50;1.73;;;16.10;99.90;;;;;;5048591;28;20043;-84
2022/08/23 02:37:36;;;;;;;1.90;1.60;;;16.00;99.90;;;;;;5030526;28;20049;-84
2022/08/23 02:40:03;;;;;;;2.20;2.00;;;16.00;99.90;;;;;;5044870;28;20045;-83
2022/08/23 02:42:29;;;;;;;5.32;2.40;;;15.90;99.90;;;;;;5044378;28;20033;-84
2022/08/23 02:44:55;;;;;;;3.05;2.28;;;15.80;99.90;;;;;;5047276;28;20033;-84
2022/08/23 02:47:21;;;;;;;3.83;2.50;;;15.80;99.90;;;;;;5046422;28;20033;-86
2022/08/23 02:49:46;;;;;;;4.40;2.78;;;15.80;99.90;;;;;;5046357;28;22006;-84
2022/08/23 02:52:12;;;;;;;4.38;1.92;;;15.80;99.90;;;;;;5047444;28;20037;-84
2022/08/23 02:54:38;;;;;;;4.80;2.10;;;15.70;99.90;;;;;;5044552;28;20041;-85
2022/08/23 02:57:04;;;;;;;2.72;2.40;;;15.70;99.90;;;;;;5044983;28;20126;-84
2022/08/23 02:59:30;;;;;;;4.15;2.92;;;15.70;99.90;;;;;;5047767;28;20044;-84
2022/08/23 03:01:55;;;;;;;4.15;2.97;;;15.70;99.90;;;;;;5031282;28;20136;-87
2022/08/23 03:04:21;;;;;;;5.25;3.92;;;15.70;99.90;;;;;;5045216;28;20040;-85
2022/08/23 03:06:47;;;;;;;5.88;3.40;;;15.70;99.90;;;;;;5048475;28;20037;-84
2022/08/23 03:09:12;;;;;;;5.65;3.75;;;15.70;99.90;;;;;;5045865;28;20029;-85
2022/08/23 03:11:43;;;;;;;3.63;3.00;;;15.70;99.90;;;;;;5047539;28;20573;-85
2022/08/23 03:14:09;;;;;;;4.68;3.35;;;15.70;99.90;;;;;;5043466;28;20043;-83
2022/08/23 03:16:34;;;;;;;4.22;3.20;;;15.60;99.90;;;;;;5046446;28;20124;-83
2022/08/23 03:19:01;;;;;;;3.83;3.10;;;15.60;99.90;;;;;;5048038;28;20041;-85
2022/08/23 03:21:27;;;;;;;4.25;2.80;;;15.60;99.90;;;;;;5047542;28;20037;-84
2022/08/23 03:23:52;;;;;;;4.60;3.05;;;15.70;99.90;;;;;;5046645;28;20402;-85
2022/08/23 03:26:18;;;;;;;4.65;3.30;;;15.60;99.90;;;;;;5045850;28;20068;-84
2022/08/23 03:28:45;;;;;;;4.65;3.22;;;15.70;99.90;;;;;;5041874;28;22189;-85
2022/08/23 03:31:12;;;;;;;5.07;3.83;;;15.60;99.90;;;;;;5029057;28;20068;-84
2022/08/23 03:33:38;;;;;;;5.32;3.95;;;15.60;99.90;;;;;;5047919;28;20045;-84
2022/08/23 03:36:23;;;;;;;6.47;4.32;;;15.70;99.90;;;;;;5048068;28;20067;-84
2022/08/23 03:38:48;;;;;;;8.05;4.88;;;15.60;99.90;;;;;;5023440;28;20064;-85
2022/08/23 03:41:14;;;;;;;5.35;4.60;;;15.60;99.90;;;;;;5046402;28;20040;-84
2022/08/23 03:43:39;;;;;;;4.05;3.33;;;15.60;99.90;;;;;;5047232;28;20041;-84
2022/08/23 03:46:06;;;;;;;4.75;3.33;;;15.60;99.90;;;;;;5044802;28;20411;-86
2022/08/23 03:48:31;;;;;;;4.43;3.75;;;15.50;99.90;;;;;;5044334;28;20044;-84
2022/08/23 03:50:57;;;;;;;4.20;3.60;;;15.50;99.90;;;;;;5046739;28;20041;-83
2022/08/23 03:53:23;;;;;;;3.28;2.65;;;15.40;99.90;;;;;;5048437;28;20045;-84
2022/08/23 03:55:50;;;;;;;7.28;3.90;;;15.50;99.90;;;;;;5049208;28;20052;-81
2022/08/23 03:58:16;;;;;;;6.50;5.15;;;15.40;99.90;;;;;;5048224;28;20037;-83
2022/08/23 04:00:41;;;;;;;7.70;5.90;;;15.50;99.90;;;;;;5047967;28;20507;-84
2022/08/23 04:03:07;;;;;;;6.70;4.47;;;15.50;99.90;;;;;;5047679;28;20044;-86
2022/08/23 04:05:33;;;;;;;6.38;3.95;;;15.60;99.90;;;;;;5050869;28;20033;-86
2022/08/23 04:08:01;;;;;;;4.40;4.00;;;15.50;99.90;;;;;;5046181;28;20645;-88
2022/08/23 04:10:26;;;;;;;6.90;4.35;;;15.30;99.90;;;;;;5044792;28;20400;-85
2022/08/23 04:12:53;;;;;;;5.20;3.72;;;15.40;99.90;;;;;;5046663;28;20039;-85
2022/08/23 04:15:19;;;;;;;6.03;5.00;;;15.20;99.90;;;;;;5040964;28;20036;-85
2022/08/23 04:17:44;;;;;;;6.80;4.70;;;15.30;99.90;;;;;;5043969;28;20128;-85
2022/08/23 04:20:10;;;;;;;7.38;4.82;;;15.30;99.90;;;;;;5042365;28;20040;-85
2022/08/23 04:22:36;;;;;;;6.38;4.30;;;15.30;99.90;;;;;;5044072;28;20060;-85
2022/08/23 04:25:02;;;;;;;5.30;4.10;;;15.30;99.90;;;;;;5047446;28;20072;-89
2022/08/23 04:27:28;;;;;;;6.75;5.00;;;15.30;99.90;;;;;;5046566;28;20509;-85
2022/08/23 04:29:54;;;;;;;6.18;4.72;;;15.30;99.90;;;;;;5024040;28;20041;-85
2022/08/23 04:32:19;;;;;;;5.28;4.47;;;15.30;99.90;;;;;;5044825;28;20437;-85
2022/08/23 04:34:46;;;;;;;5.25;4.38;;;15.20;99.90;;;;;;5047011;28;20036;-85
2022/08/23 04:37:12;;;;;;;6.93;4.97;;;15.20;99.90;;;;;;5025990;28;20041;-86
2022/08/23 04:42:22;;;;;;;5.63;4.80;;;15.20;99.90;;;;;;5047871;28;20585;-83
2022/08/23 04:44:48;;;;;;;6.50;4.85;;;15.20;99.90;;;;;;5044737;28;20032;-83
2022/08/23 04:47:14;;;;;;;9.73;7.93;;;15.20;99.90;;;;;;5042681;28;20034;-84
2022/08/23 04:49:39;;;;;;;11.40;9.50;;;15.30;99.90;;;;;;5044132;28;20410;-83
2022/08/23 04:52:05;;;;;;;12.60;9.27;;;15.40;99.90;;;;;;5048480;28;20040;-85
2022/08/23 04:54:31;;;;;;;15.48;10.85;;;15.40;99.90;;;;;;5043157;28;20037;-84
2022/08/23 04:56:56;;;;;;;15.98;10.68;;;15.50;99.90;;;;;;5047380;28;20072;-84
2022/08/23 04:59:22;;;;;;;12.02;10.27;;;15.60;99.90;;;;;;5027086;28;20032;-84
2022/08/23 05:01:49;;;;;;;12.98;10.65;;;15.70;99.90;;;;;;5049494;28;20036;-83
2022/08/23 05:04:15;;;;;;;13.05;10.55;;;15.80;99.90;;;;;;5046391;28;20511;-86
2022/08/23 05:06:41;;;;;;;14.13;10.88;;;15.80;99.90;;;;;;5063022;28;20028;-86
2022/08/23 05:09:07;;;;;;;13.40;11.02;;;15.90;99.90;;;;;;5042825;28;20521;-83
2022/08/23 05:11:33;;;;;;;13.73;11.05;;;15.90;99.90;;;;;;5029862;28;20047;-83
2022/08/23 05:13:58;;;;;;;14.85;11.68;;;16.00;99.90;;;;;;5045514;28;20040;-85
2022/08/23 05:16:24;;;;;;;14.32;11.60;;;16.10;99.90;;;;;;5046624;28;20059;-87
2022/08/23 05:18:49;;;;;;;14.45;11.93;;;16.10;99.90;;;;;;5044765;28;20037;-86
2022/08/23 05:21:18;;;;;;;13.65;10.68;;;16.10;99.90;;;;;;5046953;28;20029;-87
2022/08/23 05:23:44;;;;;;;15.45;11.57;;;16.20;99.90;;;;;;5037538;28;20048;-89
2022/08/23 05:26:10;;;;;;;14.10;10.80;;;16.30;99.90;;;;;;5045251;28;20123;-86
2022/08/23 05:28:40;;;;;;;13.82;11.00;;;16.30;99.90;;;;;;5029109;28;20043;-85
2022/08/23 05:31:13;;;;;;;14.85;11.23;;;16.30;99.90;;;;;;5027445;28;20125;-84
2022/08/23 05:33:39;;;;;;;13.95;11.38;;;16.30;99.90;;;;;;5045353;28;20044;-85
2022/08/23 05:36:06;;;;;;;13.60;11.68;;;16.30;99.90;;;;;;5044947;28;20036;-88
2022/08/23 05:38:32;;;;;;;15.00;11.85;;;16.30;99.90;;;;;;5042384;28;20126;-84
2022/08/23 05:41:00;;;;;;;14.40;11.57;;;16.30;99.90;;;;;;5031395;28;20083;-85
2022/08/23 05:43:27;;;;;;;14.23;11.57;;;16.30;99.90;;;;;;5048127;28;20141;-85
2022/08/23 05:46:12;;;;;;;15.68;11.75;;;16.30;99.90;;;;;;5049419;28;20075;-84
2022/08/23 05:48:39;;;;;;;15.60;13.02;;;16.40;99.90;;;;;;5063119;28;20462;-84
2022/08/23 05:51:11;;;;;;;15.70;13.70;;;16.50;99.90;;;;;;5050828;28;20049;-84
2022/08/23 05:53:38;;;;;;;19.55;14.25;;;16.60;99.90;;;;;;5061973;28;20071;-85
2022/08/23 05:56:12;;;;;;;19.27;14.90;;;16.70;99.90;;;;;;5049248;28;20040;-85
2022/08/23 05:58:38;;;;;;;16.70;14.77;;;16.80;99.90;;;;;;5046199;28;20036;-84
2022/08/23 06:01:04;;;;;;;18.52;14.73;;;16.90;99.90;;;;;;5047573;28;20033;-84
2022/08/23 06:03:30;;;;;;;17.38;14.30;;;17.00;99.90;;;;;;5048651;28;20028;-84
2022/08/23 06:05:57;;;;;;;16.77;14.65;;;17.00;99.90;;;;;;5029400;28;20411;-83
2022/08/23 06:08:23;;;;;;;15.73;13.30;;;17.00;99.90;;;;;;5028395;28;20033;-85
2022/08/23 06:10:49;;;;;;;16.10;13.90;;;17.00;99.90;;;;;;5046456;28;20052;-84
2022/08/23 06:13:14;;;;;;;15.98;14.20;;;17.00;99.90;;;;;;5046814;28;20037;-85
2022/08/23 06:15:43;;;;;;;14.82;13.30;;;17.10;99.90;;;;;;5048760;28;20449;-85
2022/08/23 06:18:11;;;;;;;15.85;13.85;;;17.30;99.90;;;;;;5044884;28;20037;-85
2022/08/23 06:20:37;;;;;;;16.38;14.00;;;17.40;99.90;;;;;;5049564;28;20419;-85
2022/08/23 06:23:05;;;;;;;15.02;13.38;;;17.60;99.90;;;;;;5050169;28;20033;-84
2022/08/23 06:25:35;;;;;;;16.05;14.40;;;17.70;99.90;;;;;;5044573;28;20064;-81
2022/08/23 06:28:01;;;;;;;14.70;13.23;;;17.90;99.90;;;;;;5039191;28;20036;-84
2022/08/23 06:30:27;;;;;;;15.07;13.50;;;18.00;99.90;;;;;;5049933;28;20487;-84
2022/08/23 06:32:53;;;;;;;14.82;13.18;;;18.20;99.90;;;;;;5032234;28;20095;-83
2022/08/23 06:35:18;;;;;;;15.80;13.27;;;18.30;99.90;;;;;;5048996;28;20095;-83
2022/08/23 06:37:44;;;;;;;14.65;13.23;;;18.40;99.90;;;;;;5042787;28;20120;-84
2022/08/23 06:40:09;;;;;;;14.57;13.05;;;18.50;99.90;;;;;;5052735;28;20494;-84
2022/08/23 06:42:35;;;;;;;14.48;12.30;;;18.70;99.90;;;;;;5053248;28;20092;-83
2022/08/23 06:45:01;;;;;;;14.85;11.80;;;18.70;99.90;;;;;;5036252;28;20079;-83
2022/08/23 06:47:27;;;;;;;13.38;11.98;;;18.80;99.90;;;;;;5052812;28;20071;-85
2022/08/23 06:49:53;;;;;;;13.77;11.63;;;19.00;99.90;;;;;;5052290;28;20101;-84
2022/08/23 06:52:18;;;;;;;11.88;10.63;;;19.10;99.90;;;;;;5052012;28;20498;-84
2022/08/23 06:54:46;;;;;;;15.05;10.82;;;19.20;99.90;;;;;;5052410;28;20407;-85
2022/08/23 06:57:12;;;;;;;14.30;10.65;;;19.40;99.90;;;;;;5047758;28;20037;-84
2022/08/23 06:59:37;;;;;;;10.88;9.77;;;19.50;99.90;;;;;;5043068;28;20059;-84
2022/08/23 07:02:06;;;;;;;12.70;10.00;;;19.60;99.90;;;;;;5052370;28;20494;-86
2022/08/23 07:04:36;;;;;;;11.50;9.90;;;19.80;99.90;;;;;;5047037;28;20045;-84
2022/08/23 07:07:03;;;;;;;14.45;10.00;;;19.90;99.90;;;;;;5049560;28;20516;-85
2022/08/23 07:09:30;;;;;;;10.38;9.32;;;20.00;99.90;;;;;;5050885;28;20518;-84
2022/08/23 07:11:56;;;;;;;10.20;8.95;;;20.10;99.90;;;;;;5031759;28;20040;-83
2022/08/23 07:14:23;;;;;;;10.85;9.18;;;20.20;99.90;;;;;;5025267;28;20025;-84
2022/08/23 07:16:51;;;;;;;9.52;8.65;;;20.30;99.90;;;;;;5052239;28;20037;-83
2022/08/23 07:19:20;;;;;;;10.75;9.05;;;20.40;99.90;;;;;;5050194;28;20111;-84
2022/08/23 07:21:47;;;;;;;15.23;8.82;;;20.50;99.90;;;;;;5052285;28;20044;-82
2022/08/23 07:24:13;;;;;;;9.38;8.43;;;20.60;99.90;;;;;;5051871;28;20033;-83
2022/08/23 07:26:40;;;;;;;9.95;8.70;;;20.80;99.90;;;;;;5049956;28;20080;-83
2022/08/23 07:29:07;;;;;;;11.65;8.40;;;20.90;99.90;;;;;;5043085;28;20505;-85
2022/08/23 07:31:37;;;;;;;10.77;7.75;;;20.90;99.90;;;;;;5049792;28;20036;-84
2022/08/23 07:34:04;;;;;;;10.13;7.25;;;21.10;99.90;;;;;;5050590;28;20037;-82
2022/08/23 07:36:31;;;;;;;7.93;6.88;;;21.20;99.90;;;;;;5051850;28;20521;-83
2022/08/23 07:38:57;;;;;;;10.85;6.60;;;21.40;99.90;;;;;;5047025;28;20040;-84
2022/08/23 07:41:26;;;;;;;6.75;6.05;;;21.50;99.90;;;;;;5032083;28;20032;-84
2022/08/23 07:43:52;;;;;;;8.10;6.13;;;21.70;99.90;;;;;;5049368;28;20522;-82
2022/08/23 07:46:18;;;;;;;9.43;6.28;;;21.80;99.90;;;;;;5051088;28;20040;-81
2022/08/23 07:48:43;;;;;;;11.57;5.38;;;21.90;99.90;;;;;;5049676;28;20037;-81
2022/08/23 07:51:12;;;;;;;8.80;5.53;;;22.00;99.90;;;;;;5050551;28;20415;-83
2022/08/23 07:53:38;;;;;;;7.32;5.53;;;22.10;99.90;;;;;;5050240;28;20041;-84
2022/08/23 07:56:06;;;;;;;8.00;6.22;;;22.30;99.90;;;;;;5033112;28;20128;-83
2022/08/23 07:58:32;;;;;;;8.35;5.53;;;22.30;99.90;;;;;;5051629;28;20503;-83
2022/08/23 08:01:10;;;;;;;6.60;5.28;;;22.50;99.90;;;;;;5028387;28;20035;-83
2022/08/23 08:03:36;;;;;;;9.45;6.05;;;22.50;99.90;;;;;;5051775;28;20041;-81
2022/08/23 08:06:10;;;;;;;8.10;5.30;;;22.60;99.90;;;;;;5050446;28;20116;-83
2022/08/23 08:08:36;;;;;;;8.10;5.78;;;22.70;99.90;;;;;;5034620;28;20044;-83
2022/08/23 08:11:01;;;;;;;5.68;5.05;;;22.70;99.90;;;;;;5044838;28;20041;-82
2022/08/23 08:13:27;;;;;;;7.65;5.35;;;22.80;99.90;;;;;;5020450;28;20049;-83
2022/08/23 08:15:53;;;;;;;8.27;5.63;;;22.90;99.90;;;;;;5032194;28;20052;-84
2022/08/23 08:18:19;;;;;;;8.18;5.00;;;23.00;99.90;;;;;;5046982;28;20037;-83
2022/08/23 08:20:44;;;;;;;7.38;5.13;;;23.10;99.90;;;;;;5028696;28;20415;-83
2022/08/23 08:23:10;;;;;;;7.28;4.60;;;23.20;99.90;;;;;;5045160;28;20037;-82
2022/08/23 08:25:36;;;;;;;11.80;4.32;;;23.40;99.90;;;;;;5045147;28;20571;-83
2022/08/23 08:28:01;;;;;;;5.28;4.35;;;23.50;99.90;;;;;;5050535;28;20110;-83
2022/08/23 08:30:27;;;;;;;8.85;4.30;;;23.60;99.90;;;;;;5051178;28;20051;-82
2022/08/23 08:32:53;;;;;;;6.40;3.92;;;23.80;99.90;;;;;;5051123;28;20041;-81
2022/08/23 08:35:18;;;;;;;4.97;4.03;;;23.90;99.90;;;;;;5050871;28;20087;-83
2022/08/23 08:37:44;;;;;;;8.93;4.22;;;24.10;99.90;;;;;;5050855;28;20040;-82
2022/08/23 08:40:10;;;;;;;6.47;4.43;;;24.30;99.90;;;;;;5050045;28;20111;-82
2022/08/23 08:42:47;;;;;;;6.22;4.38;;;24.30;99.90;;;;;;5050489;28;20033;-84
2022/08/23 08:45:23;;;;;;;5.60;3.80;;;24.40;99.90;;;;;;5033888;28;20116;-83
2022/08/23 08:47:55;;;;;;;7.25;4.13;;;24.50;99.90;;;;;;5050587;28;20052;-83
2022/08/23 08:50:36;;;;;;;6.37;4.20;;;24.50;99.90;;;;;;5050401;28;20037;-82
2022/08/23 08:53:12;;;;;;;6.53;4.00;;;24.60;99.90;;;;;;5050171;28;20120;-83
2022/08/23 08:55:43;;;;;;;5.85;3.60;;;24.50;99.90;;;;;;5050088;28;20048;-83
2022/08/23 08:58:17;;;;;;;7.95;4.05;;;24.60;99.90;;;;;;5033681;28;20091;-83
2022/08/23 09:00:43;;;;;;;6.68;3.65;;;24.70;99.90;;;;;;5027295;28;20414;-81
2022/08/23 09:03:13;;;;;;;6.22;3.95;;;24.80;99.90;;;;;;5041217;28;20112;-85
2022/08/23 09:06:06;;;;;;;6.88;4.03;;;24.80;99.90;;;;;;5049747;28;20041;-82
2022/08/23 09:08:59;;;;;;;7.73;4.30;;;24.80;99.90;;;;;;5028177;28;20052;-83
2022/08/23 09:11:25;;;;;;;7.78;4.28;;;24.80;99.90;;;;;;5047647;28;20123;-82
2022/08/23 09:14:01;;;;;;;6.75;3.60;;;24.90;99.90;;;;;;5049625;28;20132;-82
2022/08/23 09:16:48;;;;;;;6.82;3.67;;;24.90;99.90;;;;;;5052162;28;20044;-82
2022/08/23 09:19:13;;;;;;;5.38;3.70;;;25.00;99.90;;;;;;5047094;28;20041;-82
2022/08/23 09:21:54;;;;;;;6.85;4.22;;;25.00;99.90;;;;;;5046504;28;20056;-83
2022/08/23 09:24:20;;;;;;;7.88;4.07;;;25.00;99.90;;;;;;5045048;28;20106;-83
2022/08/23 09:26:45;;;;;;;6.63;3.60;;;25.00;99.90;;;;;;5044317;28;20495;-84
2022/08/23 09:29:26;;;;;;;8.27;3.03;;;24.90;99.90;;;;;;5046410;28;20101;-84
2022/08/23 09:32:01;;;;;;;6.20;3.58;;;25.00;99.90;;;;;;5043263;28;20446;-84
2022/08/23 09:34:29;;;;;;;7.45;3.40;;;25.00;99.90;;;;;;5044184;28;20301;-84
2022/08/23 09:37:08;;;;;;;5.93;3.28;;;25.00;99.90;;;;;;5019279;28;20124;-84
2022/08/23 09:39:37;;;;;;;7.15;3.30;;;25.20;99.90;;;;;;5044532;28;20068;-82
2022/08/23 09:42:07;;;;;;;4.85;2.60;;;25.30;99.90;;;;;;5042803;28;20041;-83
2022/08/23 09:44:39;;;;;;;6.43;2.78;;;25.40;99.90;;;;;;5043798;28;20394;-84
2022/08/23 09:47:15;;;;;;;6.78;3.25;;;25.40;99.90;;;;;;5044990;28;20055;-85
2022/08/23 09:49:43;;;;;;;5.03;2.58;;;25.40;99.90;;;;;;5037782;28;20032;-83
2022/08/23 09:52:23;;;;;;;6.13;2.30;;;25.40;99.90;;;;;;5044568;28;20037;-81
2022/08/23 09:55:01;;;;;;;6.60;2.60;;;25.40;99.90;;;;;;5043258;28;20048;-82
2022/08/23 09:57:30;;;;;;;4.57;3.03;;;25.60;99.90;;;;;;5046010;28;20040;-82
2022/08/23 10:00:02;;;;;;;5.65;3.15;;;25.60;99.90;;;;;;5042953;28;20053;-81
2022/08/23 10:02:32;;;;;;;4.85;2.90;;;25.70;99.90;;;;;;5042656;28;20105;-81
2022/08/23 10:05:37;;;;;;;4.38;3.03;;;25.80;99.90;;;;;;5044140;28;20075;-82
2022/08/23 10:08:03;;;;;;;6.15;2.80;;;25.90;99.90;;;;;;5040578;28;20406;-81
2022/08/23 10:10:47;;;;;;;5.45;3.22;;;25.90;99.90;;;;;;5045218;28;20033;-81
2022/08/23 10:13:13;;;;;;;8.23;3.70;;;26.00;99.90;;;;;;5052578;28;20843;-82
2022/08/23 10:16:02;;;;;;;4.40;2.90;;;26.00;99.90;;;;;;5049703;28;20051;-82
2022/08/23 10:18:39;;;;;;;6.75;2.88;;;26.20;99.90;;;;;;5049920;28;20127;-80
2022/08/23 10:21:30;;;;;;;6.50;2.63;;;26.30;99.90;;;;;;5049584;28;20068;-80
2022/08/23 10:24:13;;;;;;;8.63;3.00;;;26.40;99.90;;;;;;5049373;28;20056;-83
2022/08/23 10:26:54;;;;;;;5.22;2.60;;;26.40;99.90;;;;;;5051914;28;20407;-82
2022/08/23 10:29:42;;;;;;;4.45;2.65;;;26.50;99.70;;;;;;5053585;28;20072;-81
2022/08/23 10:32:10;;;;;;;4.70;2.92;;;26.60;99.60;;;;;;5036971;28;20044;-82
2022/08/23 10:35:02;;;;;;;6.43;2.60;;;26.60;98.50;;;;;;5053200;28;20045;-82
2022/08/23 10:37:58;;;;;;;5.68;2.70;;;26.70;99.50;;;;;;5035403;28;20116;-81
2022/08/23 10:40:47;;;;;;;6.55;2.75;;;26.80;99.60;;;;;;5045097;28;20503;-81
2022/08/23 10:43:24;;;;;;;4.15;2.65;;;27.10;99.80;;;;;;5034243;28;20044;-83
2022/08/23 10:45:51;;;;;;;7.57;2.90;;;27.20;99.30;;;;;;5045586;28;20032;-83
2022/08/23 10:48:31;;;;;;;3.60;2.38;;;27.20;99.20;;;;;;5028883;28;20037;-81
2022/08/23 10:51:08;;;;;;;6.28;3.00;;;27.30;98.90;;;;;;5046990;28;20057;-80
2022/08/23 10:53:45;;;;;;;5.43;2.63;;;27.40;98.00;;;;;;5044674;28;20049;-81
2022/08/23 10:56:17;;;;;;;8.30;2.60;;;27.50;98.40;;;;;;5046149;28;20049;-81
2022/08/23 10:58:50;;;;;;;4.50;2.58;;;27.50;98.40;;;;;;5037210;28;20128;-82
2022/08/23 11:01:21;;;;;;;3.42;2.67;;;27.60;97.90;;;;;;5044432;28;20087;-81
2022/08/23 11:04:00;;;;;;;5.55;3.17;;;27.70;98.20;;;;;;5064068;28;20047;-82
2022/08/23 11:06:35;;;;;;;7.57;2.70;;;27.90;97.90;;;;;;5043831;28;20079;-83
2022/08/23 11:09:08;;;;;;;5.80;2.30;;;28.00;97.30;;;;;;5027932;28;20087;-85
2022/08/23 11:11:42;;;;;;;;;;;28.20;97.20;;;;;;5043740;28;20044;-84
2022/08/23 11:14:11;;;;;;;4.57;2.33;;;28.30;96.00;;;;;;5043958;28;20009;-80
2022/08/23 11:16:41;;;;;;;5.25;2.50;;;28.50;97.40;;;;;;5045778;28;20123;-81
2022/08/23 11:19:12;;;;;;;6.45;2.50;;;28.60;97.00;;;;;;5043674;28;20228;-81
2022/08/23 11:21:40;;;;;;;4.22;2.65;;;28.80;96.80;;;;;;5041696;28;20598;-83
2022/08/23 11:24:05;;;;;;;5.88;2.33;;;29.10;96.60;;;;;;5048466;28;20101;-81
2022/08/23 11:26:38;;;;;;;5.00;2.13;;;29.20;96.30;;;;;;5046213;28;20530;-83
2022/08/23 11:29:26;;;;;;;5.63;2.67;;;29.40;94.20;;;;;;5033114;28;20091;-81
2022/08/23 11:32:21;;;;;;;7.72;2.55;;;29.40;95.40;;;;;;5048471;28;20055;-81
2022/08/23 11:35:26;;;;;;;6.53;2.42;;;29.50;94.80;;;;;;5035201;28;20044;-81
2022/08/23 11:37:55;;;;;;;3.80;2.10;;;29.30;94.50;;;;;;5052611;28;20045;-81
2022/08/23 11:40:55;;;;;;;4.82;2.10;;;29.20;94.20;;;;;;5052344;28;20037;-82
2022/08/23 11:43:38;;;;;;;4.85;2.20;;;29.20;93.80;;;;;;5048923;28;20041;-82
2022/08/23 11:46:25;;;;;;;4.73;2.40;;;29.10;92.80;;;;;;5017813;28;20112;-81
2022/08/23 11:49:12;;;;;;;6.65;2.90;;;29.20;93.00;;;;;;5050512;28;20407;-81
2022/08/23 11:52:06;;;;;;;6.78;2.60;;;29.30;93.60;;;;;;5043662;28;20080;-80
2022/08/23 11:55:10;;;;;;;5.75;2.30;;;29.70;93.90;;;;;;5050802;28;20517;-80
2022/08/23 11:57:55;;;;;;;;;;;29.90;93.90;;;;;;5048185;28;20045;-82
2022/08/23 12:00:26;;;;;;;7.72;2.33;;;30.20;93.40;;;;;;5032299;28;19921;-81
2022/08/23 12:03:05;;;;;;;6.55;2.50;;;30.40;92.20;;;;;;5046266;28;20037;-80
2022/08/23 12:05:33;;;;;;;6.18;2.30;;;30.20;91.40;;;;;;5052873;28;20129;-81
2022/08/23 12:08:02;;;;;;;4.40;2.03;;;30.20;91.80;;;;;;5030219;28;20040;-81
2022/08/23 12:10:39;;;;;;;4.55;2.30;;;30.20;91.70;;;;;;5065685;28;20099;-80
2022/08/23 12:13:20;;;;;;;5.47;2.40;;;30.10;91.40;;;;;;5041060;28;20127;-81
2022/08/23 12:16:18;;;;;;;3.65;2.00;;;30.20;91.20;;;;;;5045252;28;20498;-81
2022/08/23 12:18:49;;;;;;;3.60;1.98;;;30.30;91.20;;;;;;5046802;28;20048;-80
2022/08/23 12:21:23;;;;;;;4.85;2.25;;;30.40;91.30;;;;;;5028521;28;20075;-80
2022/08/23 12:23:56;;;;;;;4.15;2.35;;;30.20;91.00;;;;;;5044694;28;20029;-82
2022/08/23 12:26:25;;;;;;;4.20;2.00;;;30.20;91.40;;;;;;5045172;28;20098;-79
2022/08/23 12:29:05;;;;;;;5.38;2.20;;;30.00;91.30;;;;;;5044098;28;20033;-81
2022/08/23 12:31:58;;;;;;;5.60;2.65;;;29.90;90.80;;;;;;5044822;28;20045;-82
2022/08/23 12:34:38;;;;;;;6.05;2.20;;;29.90;91.10;;;;;;5058916;28;20116;-82
2022/08/23 12:37:32;;;;;;;5.75;2.03;;;29.80;90.50;;;;;;5047273;28;20041;-81
2022/08/23 12:40:01;;;;;;;2.83;1.75;;;29.70;90.70;;;;;;5035823;28;20122;-82
2022/08/23 12:42:31;;;;;;;3.15;2.28;;;29.80;91.40;;;;;;5046590;28;20491;-83
2022/08/23 12:45:14;;;;;;;3.97;2.08;;;29.80;91.50;;;;;;5045374;28;20033;-81
2022/08/23 12:47:42;;;;;;;3.85;2.05;;;29.80;91.00;;;;;;5060998;28;20073;-81
2022/08/23 12:50:19;;;;;;;3.05;2.00;;;29.90;90.80;;;;;;5044859;28;20039;-81
2022/08/23 12:52:56;;;;;;;6.78;1.98;;;30.10;90.20;;;;;;5042812;28;20036;-81
2022/08/23 12:55:22;;;;;;;4.93;1.80;;;30.10;88.70;;;;;;5044037;28;20478;-81
2022/08/23 12:57:54;;;;;;;4.38;1.90;;;30.30;89.00;;;;;;5029494;28;20124;-82
2022/08/23 13:00:24;;;;;;;4.75;2.20;;;30.30;85.60;;;;;;5044477;28;20045;-81
2022/08/23 13:03:14;;;;;;;6.90;2.10;;;30.40;87.70;;;;;;5048199;28;20056;-80
2022/08/23 13:05:53;;;;;;;4.65;2.13;;;30.50;87.60;;;;;;5062536;28;20044;-79
2022/08/23 13:08:26;;;;;;;5.18;1.92;;;30.40;86.20;;;;;;5044085;28;20029;-81
2022/08/23 13:10:52;;;;;;;;;;;30.30;87.00;;;;;;5044123;28;20090;-82